• Join FlightAware (Why Join?)
  • Login
  • US Flag 
01:57AM EDT


 

Airport Tracker/Info


-or-


 

Live Flight TrackerFlight Track Log ✈ SWA311 ✈ 14-Apr-2013 ✈ KBDL - KFLL

Flight Track Log - Related Links

Times and Time Zones

All times are in EDT time to prevent confusion due to time zone crossing. See the SWA311 flight status page for this flight to view local times or setup timezone preferences in your user account.

Time Position Orientation Groundspeed Altitude Reporting Facility
EDT Latitude Longitude Course Direction KTS MPH feet Rate Location/Type
07:34AM 41.9500 -72.7053 231° Southwest 167 192 1,300  Level Boston Center
07:35AM 41.9144 -72.7636 231° Southwest 197 227 4,500 2,520 Climbing Boston Center
07:36AM 41.8500 -72.7189 153° Southeast 184 212 7,500 3,360 Climbing Boston Center
07:37AM 41.7750 -72.6544 147° Southeast 251 289 11,300 3,000 Climbing Boston Center
07:38AM 41.6917 -72.5903 150° Southeast 308 354 13,400 2,460 Climbing Boston Center
07:39AM 41.5958 -72.5706 171° South 353 406 16,200 2,580 Climbing Boston Center
07:40AM 41.4958 -72.6008 193° South 358 412 18,700 2,340 Climbing Boston Center
07:41AM 41.4019 -72.6283 192° South 370 426 21,000 2,400 Climbing Boston Center
07:42AM 41.2956 -72.6694 196° South 383 441 23,600 2,520 Climbing Boston Center
07:43AM 41.1872 -72.7103 196° South 398 458 26,000 2,040 Climbing Boston Center
07:44AM 41.0767 -72.7511 196° South 408 470 27,700 1,620 Climbing Boston Center
07:45AM 40.9619 -72.7892 194° South 421 484 29,300 1,860 Climbing Boston Center
07:46AM 40.8636 -72.8656 210° Southwest 421 484 31,400 2,160 Climbing Boston Center
07:47AM 40.7592 -72.9661 216° Southwest 405 466 34,100 1,620 Climbing Boston Center
07:48AM 40.6692 -73.0447 214° Southwest 400 460 35,100 960 Climbing Boston Center
07:49AM 40.5831 -73.1342 218° Southwest 400 460 36,100 1,260 Climbing Boston Center
07:50AM 40.4931 -73.2178 215° Southwest 400 460 37,600 900 Climbing Boston Center
07:51AM 40.4089 -73.3039 218° Southwest 400 460 38,000 180 Climbing Boston Center
07:52AM 40.3167 -73.3872 215° Southwest 400 460 38,000  Level Boston Center
07:53AM 40.2306 -73.4675 215° Southwest 400 460 38,000  Level Boston Center
07:55AM 40.0886 -73.6064 217° Southwest 389 448 38,000  Level Washington Center
07:56AM 40.0025 -73.6903 217° Southwest 394 453 38,000  Level Washington Center
07:57AM 39.9142 -73.7736 216° Southwest 399 459 38,000  Level Washington Center
07:58AM 39.8281 -73.8542 216° Southwest 399 459 38,000  Level Washington Center
07:59AM 39.7417 -73.9347 216° Southwest 399 459 38,000  Level Washington Center
08:00AM 39.6489 -74.0203 215° Southwest 394 453 38,000  Level Washington Center
08:01AM 39.5625 -74.1003 216° Southwest 388 447 38,000  Level Washington Center
08:02AM 39.4758 -74.1800 215° Southwest 388 447 38,000  Level Washington Center
08:03AM 39.3831 -74.2569 213° Southwest 388 447 38,000  Level Washington Center
08:04AM 39.2900 -74.3286 211° Southwest 393 452 38,000  Level Washington Center
08:05AM 39.1992 -74.3997 211° Southwest 393 452 38,000  Level Washington Center
08:06AM 39.1058 -74.4708 211° Southwest 393 452 38,000  Level Washington Center
08:07AM 39.0108 -74.5444 211° Southwest 393 452 38,000  Level Washington Center
08:08AM 38.9197 -74.6150 211° Southwest 393 452 38,000  Level Washington Center
08:09AM 38.8242 -74.6858 210° Southwest 398 458 38,000  Level Washington Center
08:10AM 38.7331 -74.7586 212° Southwest 398 458 38,000  Level Washington Center
08:11AM 38.6397 -74.8261 209° Southwest 398 458 38,000  Level Washington Center
08:12AM 38.5506 -74.8961 212° Southwest 392 451 38,000  Level Washington Center
08:13AM 38.4614 -74.9633 211° Southwest 386 444 38,000  Level Washington Center
08:14AM 38.3719 -75.0303 210° Southwest 379 436 38,000  Level Washington Center
08:15AM 38.2931 -75.0892 210° Southwest 379 436 38,000  Level Washington Center
08:16AM 38.2078 -75.1583 213° Southwest 379 436 38,000  Level Washington Center
08:17AM 38.1203 -75.2250 211° Southwest 374 430 38,000  Level Washington Center
08:18AM 38.0289 -75.2914 210° Southwest 374 430 38,000  Level Washington Center
08:19AM 37.9414 -75.3547 210° Southwest 374 430 38,000  Level Washington Center
08:20AM 37.8539 -75.4236 212° Southwest 379 436 38,000  Level Washington Center
08:21AM 37.7622 -75.4894 210° Southwest 384 442 38,000  Level Washington Center
08:22AM 37.6706 -75.5578 211° Southwest 384 442 38,000  Level Washington Center
08:23AM 37.5786 -75.6233 209° Southwest 384 442 38,000  Level Washington Center
08:24AM 37.4889 -75.6886 210° Southwest 384 442 38,000  Level Washington Center
08:25AM 37.4014 -75.7539 211° Southwest 379 436 38,000  Level Washington Center
08:26AM 37.3117 -75.8192 210° Southwest 379 436 38,000  Level Washington Center
08:27AM 37.2239 -75.8814 209° Southwest 379 436 38,000  Level Washington Center
08:28AM 37.1319 -75.9461 209° Southwest 384 442 38,000  Level Washington Center
08:29AM 37.0442 -76.0108 210° Southwest 384 442 38,000  Level Washington Center
08:30AM 36.9500 -76.0753 209° Southwest 391 450 38,000  Level Washington Center
08:31AM 36.8578 -76.1422 210° Southwest 391 450 38,000  Level Washington Center
08:32AM 36.7658 -76.2064 209° Southwest 391 450 38,000  Level Washington Center
08:33AM 36.6653 -76.2833 212° Southwest 391 450 38,000  Level Washington Center
08:34AM 36.5731 -76.3472 209° Southwest 386 444 38,000  Level Washington Center
08:35AM 36.4828 -76.4108 210° Southwest 386 444 38,000  Level Washington Center
08:36AM 36.3906 -76.4744 209° Southwest 381 438 38,000  Level Washington Center
08:37AM 36.3006 -76.5378 210° Southwest 381 438 38,000  Level Washington Center
08:38AM 36.2103 -76.6011 210° Southwest 381 438 38,000  Level Washington Center
08:39AM 36.1178 -76.6667 210° Southwest 381 438 38,000  Level Washington Center
08:40AM 36.0256 -76.7297 209° Southwest 381 438 38,000  Level Washington Center
08:41AM 35.9331 -76.7925 209° Southwest 381 438 38,000  Level Washington Center
08:42AM 35.8406 -76.8628 212° Southwest 386 444 38,000  Level Washington Center
08:43AM 35.7481 -76.9256 209° Southwest 386 444 38,000  Level Washington Center
08:44AM 35.6533 -76.9878 208° Southwest 386 444 38,000  Level Washington Center
08:45AM 35.5714 -77.0475 211° Southwest 386 444 38,000  Level Washington Center
08:46AM 35.4767 -77.1122 209° Southwest 386 444 38,000  Level Washington Center
08:47AM 35.3797 -77.1792 209° Southwest 386 444 38,000  Level Washington Center
08:48AM 35.2828 -77.2458 209° Southwest 391 450 38,000  Level Washington Center
08:49AM 35.1881 -77.3100 209° Southwest 396 456 38,000  Level Washington Center
08:50AM 35.0911 -77.3739 208° Southwest 396 456 38,000  Level Washington Center
08:51AM 34.9964 -77.4403 210° Southwest 396 456 38,000  Level Washington Center
08:52AM 34.9036 -77.5017 208° Southwest 396 456 38,000  Level Washington Center
08:53AM 34.8086 -77.5703 211° Southwest 396 456 38,000  Level Washington Center
08:54AM 34.7136 -77.6286 207° Southwest 396 456 38,000  Level Washington Center
08:55AM 34.6044 -77.6686 197° South 401 461 38,000  Level Washington Center
08:57AM 34.3903 -77.7372 195° South 413 475 38,000  Level Jacksonville Center
08:58AM 34.2811 -77.7714 195° South 413 475 38,000  Level Jacksonville Center
08:59AM 34.1533 -77.8114 195° South 427 491 38,000  Level Jacksonville Center
09:00AM 34.0422 -77.8456 194° South 431 496 38,000  Level Jacksonville Center
09:01AM 33.9331 -77.8842 196° South 426 490 38,000  Level Jacksonville Center
09:02AM 33.8219 -77.9206 195° South 421 484 38,000  Level Jacksonville Center
09:03AM 33.7128 -77.9567 195° South 413 475 38,000  Level Jacksonville Center
09:04AM 33.6056 -77.9925 196° South 413 475 38,000  Level Jacksonville Center
09:05AM 33.4983 -78.0258 195° South 413 475 38,000  Level Jacksonville Center
09:06AM 33.3892 -78.0617 195° South 408 470 38,000  Level Jacksonville Center
09:07AM 33.2819 -78.0975 196° South 408 470 38,000  Level Jacksonville Center
09:08AM 33.1769 -78.1328 196° South 408 470 38,000  Level Jacksonville Center
09:09AM 33.0697 -78.1658 194° South 408 470 38,000  Level Jacksonville Center
09:10AM 32.9606 -78.2011 195° South 408 470 38,000  Level Jacksonville Center
09:11AM 32.8531 -78.2339 194° South 408 470 38,000  Level Jacksonville Center
09:12AM 32.7458 -78.2692 195° South 408 470 38,000  Level Jacksonville Center
09:13AM 32.6386 -78.3042 195° South 408 470 38,000  Level Jacksonville Center
09:14AM 32.5311 -78.3344 193° South 408 470 38,000  Level Jacksonville Center
09:15AM 32.4219 -78.3719 196° South 408 470 38,000  Level Jacksonville Center
09:16AM 32.3208 -78.4089 197° South 413 475 38,000  Level Jacksonville Center
09:17AM 32.2136 -78.4411 194° South 408 470 38,000  Level Jacksonville Center
09:18AM 32.1083 -78.4756 195° South 408 470 38,000  Level Jacksonville Center
09:19AM 31.9989 -78.5103 195° South 408 470 38,000  Level Jacksonville Center
09:20AM 31.8914 -78.5422 194° South 408 470 38,000  Level Jacksonville Center
09:21AM 31.7819 -78.5792 196° South 413 475 38,000  Level Jacksonville Center
09:22AM 31.6744 -78.6086 193° South 413 475 38,000  Level Jacksonville Center
09:23AM 31.5650 -78.6453 196° South 413 475 38,000  Level Jacksonville Center
09:24AM 31.4575 -78.6769 194° South 408 470 38,000  Level Jacksonville Center
09:25AM 31.3442 -78.7161 196° South 413 475 38,000  Level Jacksonville Center
09:26AM 31.2406 -78.7450 193° South 408 470 38,000  Level Jacksonville Center
09:27AM 31.1292 -78.7792 195° South 414 476 38,000  Level Jacksonville Center
09:28AM 31.0050 -78.8161 194° South 417 480 38,000  Level Jacksonville Center
09:31AM 30.6864 -78.9147 195° South 397 457 38,000  Level Miami Center
09:32AM 30.5797 -78.9464 194° South 400 460 38,000  Level Miami Center
09:33AM 30.4750 -78.9803 196° South 393 452 38,000  Level Miami Center
09:34AM 30.3642 -79.0119 194° South 407 468 38,000  Level Miami Center
09:35AM 30.2553 -79.0383 192° South 400 460 38,000  Level Miami Center
09:36AM 30.1508 -79.0650 192° South 401 461 38,000  Level Miami Center
09:37AM 30.0336 -79.0961 193° South 417 480 38,000  Level Miami Center
09:38AM 29.9392 -79.1303 197° South 417 480 38,000  Level Miami Center
09:39AM 29.8283 -79.1567 192° South 409 471 38,000  Level Miami Center
09:40AM 29.7172 -79.1828 192° South 409 471 38,000 -540 Level Miami Center
09:41AM 29.6042 -79.2092 191° South 415 478 37,000 -960 Descending Miami Center
09:42AM 29.4972 -79.2450 196° South 415 478 36,100 -900 Descending Miami Center
09:43AM 29.3761 -79.2614 187° South 422 486 35,300 -900 Descending Miami Center
09:44AM 29.2669 -79.2947 195° South 422 486 34,300 -1,020 Descending Miami Center
09:45AM 29.1539 -79.3253 193° South 417 480 33,300 -1,020 Descending Miami Center
09:46AM 29.0450 -79.3492 191° South 410 472 32,300 -1,080 Descending Miami Center
09:47AM 28.9358 -79.3775 193° South 410 472 31,200 -1,080 Descending Miami Center
09:48AM 28.8311 -79.4033 192° South 405 466 30,200 -1,020 Descending Miami Center
09:49AM 28.7158 -79.4317 192° South 393 452 29,200 -1,020 Descending Miami Center
09:50AM 28.6131 -79.4575 192° South 393 452 28,200 -1,020 Descending Miami Center
09:51AM 28.5061 -79.4836 192° South 393 452 27,200 -1,080 Descending Miami Center
09:52AM 28.4056 -79.5094 193° South 388 447 26,100 -1,080 Descending Miami Center
09:53AM 28.3050 -79.5353 193° South 382 440 25,100 -1,020 Descending Miami Center
09:54AM 28.2064 -79.5589 192° South 376 433 24,100 -600 Descending Miami Center
09:55AM 28.1078 -79.5825 192° South 371 427 24,000 -60 Descending Miami Center
09:56AM 28.0075 -79.5919 185° South 371 427 24,000  Level Miami Center
09:57AM 27.9050 -79.5989 183° South 371 427 24,000  Level Miami Center
09:58AM 27.7964 -79.6056 183° South 385 443 24,000  Level Miami Center
09:59AM 27.6875 -79.6147 184° South 419 482 24,000  Level Miami Center
10:00AM 27.5725 -79.6214 183° South 430 495 24,000  Level Miami Center
10:01AM 27.4431 -79.6322 184° South 425 489 24,000  Level Miami Center
10:02AM 27.3217 -79.6411 184° South 425 489 24,000  Level Miami Center
10:03AM 27.2044 -79.6497 184° South 425 489 24,000 -780 Level Miami Center
10:04AM 27.0978 -79.6589 184° South 425 489 22,500 -1,980 Descending Miami Center
10:05AM 26.9828 -79.6678 184° South 425 489 20,100 -2,520 Descending Miami Center
10:06AM 26.8617 -79.6767 184° South 413 475 17,500 -2,520 Descending Miami Center
10:07AM 26.7569 -79.6881 186° South 387 445 15,100 -2,580 Descending Miami Center
10:07AM 26.7064 -79.7053 197° South 367 422 13,800 -2,400 Descending Miami Center
10:08AM 26.6600 -79.7253 201° Southwest 376 433 12,700 -2,220 Descending Miami Center
10:08AM 26.5925 -79.7631 207° Southwest 357 411 11,100 -2,040 Descending Miami Center
10:09AM 26.5694 -79.7717 198° South 364 419 10,700 -1,200 Descending Miami Center
10:09AM 26.5081 -79.8028 204° Southwest 314 361 9,900 -1,140 Descending Miami Center
10:10AM 26.4892 -79.8092 197° South 341 392 9,600 -1,680 Descending Miami Center
10:10AM 26.4322 -79.8356 203° Southwest 290 334 8,200 -1,620 Descending Miami Center
10:11AM 26.4133 -79.8444 203° Southwest 308 354 8,000 -240 Descending Miami Center
10:11AM 26.3644 -79.8781 212° Southwest 286 329 8,000 -540 Level Miami Center
10:12AM 26.3006 -79.9389 220° Southwest 287 330 7,100 -960 Descending Miami Center
10:13AM 26.2367 -79.9975 219° Southwest 285 328 6,100 -600 Descending Miami Center
10:14AM 26.1811 -80.0539 222° Southwest 263 303 6,000 -120 Descending Miami Center
10:16AM 26.1608 -80.1228 252° West 247 284 5,900  Descending Miami Center
10:16AM 26.1489 -80.1897 259° West 221 254 6,000  Climbing Miami Center
10:18AM 26.1494 -80.2592 271° West 220 253 6,000 -360 Level Miami Center
10:19AM 26.1500 -80.3286 271° West 223 257 5,300 -540 Descending Miami Center
10:20AM 26.1503 -80.3956 270° West 220 253 5,000 -180 Descending Miami Center
10:21AM 26.1483 -80.4742 268° West 221 254 5,000  Level Miami Center
10:22AM 26.1122 -80.5008 214° Southwest 174 200 5,000 -120 Level Miami Center
10:23AM 26.0861 -80.4561 123° Southeast 177 204 4,800 -600 Descending Miami Center
10:24AM 26.0769 -80.4050 101° East 174 200 3,900 -840 Descending Miami Center
10:25AM 26.0742 -80.3494 93° East 173 199 3,100 -900 Descending Miami Center
10:26AM 26.0736 -80.2892 91° East 174 200 2,000 -900 Descending Miami Center
10:27AM 26.0725 -80.2406 91° East 142 163 1,200 -780 Descending Miami Center
10:28AM 26.0756 -80.2014 85° East 138 159 500 -780 Descending Miami Center
10:30AM 26.0667 -80.1500 103° East  Level FlightAware Approximate